Corpus Christi International Airport Corpus Christi US
ICAO: KCRP
IATA: CRP
Category: Large
Scheduled Services: Yes

Elevation: 44 ft
TransAlt. 18000 ft.

Airport Communications:
APP/DEP:120.9
ATIS:126.8
CLNC DEL:118.55
GND:121.9
SAN ANGELO RDO:122.65
TWR:119.4
UNICOM:122.95

KCRP Zoom In..

If Map Doesn't Load, Click Here

Runways:

(A) RW 13 length 7508 ft width 150 ft
ILS 110.30 / hdg 129

(B) RW 17 length 6080 ft width 150 ft
LOC 110.30 / hdg 172

(C) RW 31 length 7508 ft width 150 ft
LOC 110.30 / hdg 309

(D) RW 35 length 6080 ft width 150 ft
ILS 109.50 / hdg 352

Location; KCRP
Day. 23 / Time. 20.51 Zulu
* Altimeter: 29.85
* Temperature: 30° c. 86°f.
* Wind from: 300° Speed 09 kn.
Dewpoint: 21° c.
Visibility: 10 Statute Miles.
Clouds: Scattered 3800 ft.
Clouds: Scattered 25000 ft.

KCRP 232051Z 30009KT 10SM SCT038 SCT250 30/21 A2985 RMK AO2 SLP108 T03000206 58032


Wind From 300°
Speed 09 kn.

 
 
jpsmedia.com for Web Design worldairports.se 2018   terms of use